createdAt,value
2022-08-10T00:00:21.507Z,102899.97
2022-08-10T00:02:22.987Z,102896.53
2022-08-10T00:04:24.762Z,102898.38
2022-08-10T00:06:26.414Z,102905.56
2022-08-10T00:08:29.499Z,102897.75
2022-08-10T00:10:31.605Z,102894.38
2022-08-10T00:12:53.581Z,102901.66
2022-08-10T00:14:54.765Z,102900.81
2022-08-10T00:16:56.278Z,102894.66
2022-08-10T00:18:57.807Z,102905.41
2022-08-10T00:20:59.386Z,102902.81
2022-08-10T00:23:00.893Z,102904.69
2022-08-10T00:25:02.588Z,102905.59
2022-08-10T00:27:49.960Z,102891.41
2022-08-10T00:29:26.206Z,102894.13
2022-08-10T00:31:27.709Z,102894.22
2022-08-10T00:33:29.248Z,102896.97
2022-08-10T00:35:30.860Z,102891.66
2022-08-10T00:37:32.367Z,102892.63
2022-08-10T00:39:35.875Z,102890.88
2022-08-10T00:41:38.040Z,102894.53
2022-08-10T00:43:39.625Z,102891.00
2022-08-10T00:45:41.189Z,102889.25
2022-08-10T00:47:44.148Z,102884.88
2022-08-10T00:49:45.863Z,102891.06
2022-08-10T00:51:48.793Z,102894.69
2022-08-10T00:53:50.612Z,102891.19
2022-08-10T00:57:12.726Z,102894.84
2022-08-10T00:58:13.732Z,102899.41
2022-08-10T01:00:15.579Z,102895.00
2022-08-10T01:02:17.162Z,102887.94
2022-08-10T01:04:54.541Z,102894.22
2022-08-10T01:06:58.428Z,102890.66
2022-08-10T01:09:21.657Z,102891.63
2022-08-10T01:12:34.255Z,102889.88
2022-08-10T01:14:12.759Z,102889.00
2022-08-10T01:16:32.457Z,102881.94
2022-08-10T01:18:46.972Z,102886.44
2022-08-10T01:21:06.734Z,102881.16
2022-08-10T01:23:27.438Z,102883.81
2022-08-10T01:26:12.142Z,102878.56
2022-08-10T01:28:31.211Z,102880.41
2022-08-10T01:30:33.581Z,102876.97
2022-08-10T01:32:47.694Z,102885.03
2022-08-10T01:34:53.911Z,102889.50
2022-08-10T01:37:05.078Z,102881.53
2022-08-10T01:39:09.573Z,102882.47
2022-08-10T01:41:21.411Z,102884.34
2022-08-10T01:43:26.361Z,102882.66
2022-08-10T01:45:29.985Z,102881.78
2022-08-10T01:48:16.861Z,102876.47
2022-08-10T01:50:33.544Z,102874.69
2022-08-10T01:52:36.948Z,102871.13
2022-08-10T01:54:40.529Z,102877.34
2022-08-10T01:56:45.438Z,102879.16
2022-08-10T01:58:51.175Z,102872.97
2022-08-10T02:00:54.358Z,102874.81
2022-08-10T02:02:58.204Z,102878.44
2022-08-10T02:05:03.603Z,102877.63
2022-08-10T02:07:08.497Z,102881.22
2022-08-10T02:09:15.318Z,102881.22
2022-08-10T02:11:18.721Z,102875.00
2022-08-10T02:13:21.813Z,102875.00
2022-08-10T02:15:26.798Z,102870.59
2022-08-10T02:18:00.049Z,102866.19
2022-08-10T02:20:02.404Z,102876.00
2022-08-10T02:22:36.308Z,102871.59
2022-08-10T02:24:27.775Z,102872.53
2022-08-10T02:26:30.225Z,102875.19
2022-08-10T02:28:35.375Z,102875.19
2022-08-10T02:30:37.587Z,102881.41
2022-08-10T02:32:40.847Z,102881.41
2022-08-10T02:34:52.972Z,102881.47
2022-08-10T02:36:57.123Z,102885.06
2022-08-10T02:39:02.112Z,102879.78
2022-08-10T02:42:17.924Z,102881.56
2022-08-10T02:45:24.705Z,102880.69
2022-08-10T02:46:18.416Z,102880.72
2022-08-10T02:48:28.420Z,102882.53
2022-08-10T02:50:32.671Z,102882.56
2022-08-10T02:52:42.478Z,102873.69
2022-08-10T02:54:52.480Z,102873.69
2022-08-10T02:57:05.785Z,102877.28
2022-08-10T02:59:11.763Z,102872.84
2022-08-10T03:01:17.949Z,102879.06
2022-08-10T03:03:23.622Z,102871.09
2022-08-10T03:05:25.459Z,102867.59
2022-08-10T03:07:43.744Z,102869.38
2022-08-10T03:09:48.740Z,102869.41
2022-08-10T03:12:35.426Z,102873.84
2022-08-10T03:14:17.107Z,102872.97
2022-08-10T03:16:21.841Z,102873.00
2022-08-10T03:18:24.992Z,102871.25
2022-08-10T03:20:46.356Z,102867.72
2022-08-10T03:22:51.130Z,102873.09
2022-08-10T03:24:54.141Z,102871.34
2022-08-10T03:26:57.042Z,102880.22
2022-08-10T03:29:05.539Z,102874.94
2022-08-10T03:31:07.391Z,102881.16
2022-08-10T03:33:09.897Z,102872.31
2022-08-10T03:35:12.647Z,102875.00
2022-08-10T03:37:14.205Z,102869.72
2022-08-10T03:39:15.927Z,102867.06
2022-08-10T03:41:23.363Z,102865.28
2022-08-10T03:43:26.885Z,102865.38
2022-08-10T03:45:55.269Z,102866.28
2022-08-10T03:47:56.134Z,102868.06
2022-08-10T03:49:59.674Z,102863.66
2022-08-10T03:52:21.484Z,102868.13
2022-08-10T03:54:24.358Z,102862.84
2022-08-10T03:56:31.477Z,102868.22
2022-08-10T03:58:34.609Z,102875.31
2022-08-10T04:00:36.431Z,102866.50
2022-08-10T04:02:43.351Z,102875.41
2022-08-10T04:04:49.616Z,102875.50
2022-08-10T04:06:55.157Z,102868.41
2022-08-10T04:08:58.487Z,102869.31
2022-08-10T04:10:59.970Z,102873.75
2022-08-10T04:13:01.489Z,102871.97
2022-08-10T04:15:03.841Z,102878.16
2022-08-10T04:17:05.408Z,102881.66
2022-08-10T04:19:08.017Z,102875.47
2022-08-10T04:21:17.272Z,102876.34
2022-08-10T04:23:25.341Z,102880.78
2022-08-10T04:25:27.727Z,102881.72
2022-08-10T04:27:29.919Z,102891.44
2022-08-10T04:29:31.452Z,102889.63
2022-08-10T04:31:34.398Z,102888.69
2022-08-10T04:33:39.776Z,102891.25
2022-08-10T04:35:43.072Z,102886.75
2022-08-10T04:37:47.028Z,102880.47
2022-08-10T04:39:49.616Z,102882.19
2022-08-10T04:41:51.687Z,102883.91
2022-08-10T04:43:53.702Z,102881.16
2022-08-10T04:45:55.679Z,102881.88
2022-08-10T04:48:00.614Z,102883.44
2022-08-10T04:50:05.582Z,102893.03
2022-08-10T04:52:07.096Z,102898.28
2022-08-10T04:54:09.143Z,102898.22
2022-08-10T04:56:11.809Z,102896.28
2022-08-10T04:58:13.427Z,102895.19
2022-08-10T05:00:19.196Z,102890.53
2022-08-10T05:02:28.592Z,102890.28
2022-08-10T05:04:37.271Z,102890.84
2022-08-10T05:06:40.703Z,102890.56
2022-08-10T05:08:42.237Z,102891.28
2022-08-10T05:10:43.746Z,102885.75
2022-08-10T05:12:45.873Z,102897.19
2022-08-10T05:14:47.467Z,102893.59
2022-08-10T05:16:48.948Z,102891.78
2022-08-10T05:18:50.440Z,102892.72
2022-08-10T05:20:51.965Z,102883.91
2022-08-10T05:22:53.456Z,102892.84
2022-08-10T05:24:55.009Z,102884.03
2022-08-10T05:27:09.549Z,102891.19
2022-08-10T05:29:12.061Z,102883.19
2022-08-10T05:31:14.631Z,102891.22
2022-08-10T05:33:24.020Z,102891.22
2022-08-10T05:35:26.956Z,102885.78
2022-08-10T05:38:09.087Z,102889.19
2022-08-10T05:39:51.883Z,102893.41
2022-08-10T05:41:54.652Z,102886.19
2022-08-10T05:43:57.222Z,102890.50
2022-08-10T05:46:17.166Z,102891.25
2022-08-10T05:48:54.508Z,102895.53
2022-08-10T05:50:42.010Z,102893.53
2022-08-10T05:52:43.643Z,102894.22
2022-08-10T05:54:46.259Z,102894.00
2022-08-10T05:56:56.215Z,102897.41
2022-08-10T05:58:59.692Z,102898.13
2022-08-10T06:01:03.718Z,102897.03
2022-08-10T06:03:08.562Z,102897.72
2022-08-10T06:05:13.610Z,102893.09
2022-08-10T06:07:20.003Z,102897.38
2022-08-10T06:09:25.999Z,102902.53
2022-08-10T06:12:27.196Z,102900.56
2022-08-10T06:14:16.689Z,102905.66
2022-08-10T06:16:21.887Z,102898.31
2022-08-10T06:18:24.280Z,102903.44
2022-08-10T06:20:26.094Z,102903.28
2022-08-10T06:22:33.126Z,102912.84
2022-08-10T06:24:55.916Z,102908.19
2022-08-10T06:27:02.005Z,102902.66
2022-08-10T06:29:14.775Z,102895.25
2022-08-10T06:31:18.768Z,102903.13
2022-08-10T06:33:23.384Z,102902.94
2022-08-10T06:35:28.673Z,102907.13
2022-08-10T06:37:30.937Z,102904.22
2022-08-10T06:39:34.775Z,102904.91
2022-08-10T06:41:57.956Z,102912.66
2022-08-10T06:44:11.328Z,102908.03
2022-08-10T06:46:20.019Z,102897.13
2022-08-10T06:48:28.575Z,102896.94
2022-08-10T06:50:56.255Z,102895.81
2022-08-10T06:53:02.487Z,102906.41
2022-08-10T06:55:08.570Z,102905.50
2022-08-10T06:57:20.366Z,102902.66
2022-08-10T06:59:27.594Z,102903.44
2022-08-10T07:01:33.463Z,102902.31
2022-08-10T07:03:44.327Z,102899.44
2022-08-10T07:05:51.256Z,102903.66
2022-08-10T07:07:56.945Z,102901.72
2022-08-10T07:10:01.471Z,102900.53
2022-08-10T07:12:08.061Z,102901.13
2022-08-10T07:14:18.397Z,102896.50
2022-08-10T07:16:21.425Z,102896.31
2022-08-10T07:18:24.274Z,102894.28
2022-08-10T07:20:28.933Z,102898.50
2022-08-10T07:23:27.431Z,102896.59
2022-08-10T07:24:55.838Z,102902.72
2022-08-10T07:26:58.719Z,102901.56
2022-08-10T07:29:02.125Z,102914.69
2022-08-10T07:31:03.874Z,102905.00
2022-08-10T07:33:26.412Z,102903.78
2022-08-10T07:35:34.697Z,102902.69
2022-08-10T07:37:39.083Z,102908.66
2022-08-10T07:39:58.276Z,102903.94
2022-08-10T07:42:09.999Z,102901.84
2022-08-10T07:44:12.589Z,102902.47
2022-08-10T07:46:15.433Z,102901.31
2022-08-10T07:48:26.313Z,102897.59
2022-08-10T07:50:29.300Z,102904.53
2022-08-10T07:52:38.164Z,102906.09
2022-08-10T07:54:47.765Z,102901.50
2022-08-10T07:56:53.640Z,102905.69
2022-08-10T07:58:59.589Z,102903.69
2022-08-10T08:01:01.324Z,102897.25
2022-08-10T08:03:03.977Z,102896.06
2022-08-10T08:05:09.942Z,102899.59
2022-08-10T08:07:13.038Z,102906.50
2022-08-10T08:09:15.649Z,102898.47
2022-08-10T08:11:25.669Z,102897.25
2022-08-10T08:13:29.311Z,102895.13
2022-08-10T08:16:17.152Z,102889.44
2022-08-10T08:17:59.764Z,102894.50
2022-08-10T08:20:04.161Z,102894.22
2022-08-10T08:24:15.032Z,102894.94
2022-08-10T08:24:34.916Z,102893.00
2022-08-10T08:26:37.201Z,102885.59
2022-08-10T08:28:40.469Z,102887.22
2022-08-10T08:30:46.946Z,102887.09
2022-08-10T08:32:51.292Z,102881.50
2022-08-10T08:34:57.562Z,102883.94
2022-08-10T08:37:01.188Z,102889.06
2022-08-10T08:39:02.989Z,102885.19
2022-08-10T08:41:20.466Z,102880.41
2022-08-10T08:43:51.076Z,102875.63
2022-08-10T08:46:02.193Z,102880.81
2022-08-10T08:48:23.054Z,102883.28
2022-08-10T08:50:57.950Z,102879.28
2022-08-10T08:53:21.929Z,102874.66
2022-08-10T08:55:55.133Z,102876.09
2022-08-10T08:58:32.491Z,102880.22
2022-08-10T09:00:51.881Z,102873.81
2022-08-10T09:03:11.820Z,102880.81
2022-08-10T09:05:26.024Z,102878.63
2022-08-10T09:08:01.229Z,102876.53
2022-08-10T09:10:10.461Z,102886.00
2022-08-10T09:12:38.288Z,102878.56
2022-08-10T09:15:06.436Z,102874.66
2022-08-10T09:17:31.935Z,102873.72
2022-08-10T09:19:48.497Z,102872.25
2022-08-10T09:22:17.152Z,102868.94
2022-08-10T09:24:50.757Z,102863.31
2022-08-10T09:26:53.999Z,102867.41
2022-08-10T09:29:12.780Z,102866.06
2022-08-10T09:31:23.061Z,102878.41
2022-08-10T09:36:19.623Z,102870.88
2022-08-10T09:36:33.327Z,102867.16
2022-08-10T09:39:03.019Z,102865.31
2022-08-10T09:41:43.064Z,102868.09
2022-08-10T09:44:04.282Z,102862.47
2022-08-10T09:46:11.797Z,102856.84
2022-08-10T09:48:21.894Z,102860.31
2022-08-10T09:51:28.014Z,102852.78
2022-08-10T09:53:24.863Z,102853.28
2022-08-10T09:56:18.359Z,102852.31
2022-08-10T09:58:36.707Z,102847.63
2022-08-10T10:00:47.475Z,102847.22
2022-08-10T10:03:23.962Z,102842.38
2022-08-10T10:05:27.421Z,102848.47
2022-08-10T10:07:30.175Z,102841.00
2022-08-10T10:10:16.290Z,102838.94
2022-08-10T10:12:36.380Z,102834.22
2022-08-10T10:15:25.261Z,102831.53
2022-08-10T10:17:42.354Z,102831.19
2022-08-10T10:19:56.077Z,102832.59
2022-08-10T10:22:32.821Z,102831.22
2022-08-10T10:24:50.901Z,102826.16
2022-08-10T10:27:27.937Z,102821.94
2022-08-10T10:29:56.898Z,102829.41
2022-08-10T10:32:36.786Z,102817.91
2022-08-10T10:36:44.749Z,102824.75
2022-08-10T10:38:47.328Z,102822.88
2022-08-10T10:41:21.240Z,102817.78
2022-08-10T10:43:51.314Z,102812.69
2022-08-10T10:46:11.643Z,102810.22
2022-08-10T10:49:00.671Z,102803.47
2022-08-10T10:51:16.357Z,102804.56
2022-08-10T10:53:44.054Z,102797.28
2022-08-10T10:56:14.451Z,102805.75
2022-08-10T10:58:28.474Z,102804.16
2022-08-10T11:00:43.566Z,102797.94
2022-08-10T11:02:50.962Z,102793.22
2022-08-10T11:05:07.730Z,102781.53
2022-08-10T11:07:36.231Z,102791.06
2022-08-10T11:10:05.211Z,102791.63
2022-08-10T11:12:37.824Z,102791.56
2022-08-10T11:14:55.851Z,102783.78
2022-08-10T11:17:11.256Z,102783.78
2022-08-10T11:19:23.461Z,102786.28
2022-08-10T11:21:31.775Z,102774.28
2022-08-10T11:24:47.943Z,102783.56
2022-08-10T11:26:24.433Z,102771.97
2022-08-10T11:28:35.043Z,102774.00
2022-08-10T11:30:50.062Z,102775.84
2022-08-10T11:33:12.587Z,102772.25
2022-08-10T11:35:35.387Z,102773.03
2022-08-10T11:38:31.228Z,102765.91
2022-08-10T11:40:20.246Z,102764.94
2022-08-10T11:42:35.710Z,102760.88
2022-08-10T11:44:57.129Z,102772.38
2022-08-10T11:47:33.872Z,102757.13
2022-08-10T11:49:55.610Z,102757.63
2022-08-10T11:52:02.905Z,102752.78
2022-08-10T11:54:25.092Z,102757.75
2022-08-10T11:56:46.947Z,102752.38
2022-08-10T11:59:17.020Z,102762.88
2022-08-10T12:01:29.823Z,102766.72
2022-08-10T12:03:34.732Z,102760.66
2022-08-10T12:05:53.876Z,102758.41
2022-08-10T12:10:02.791Z,102753.72
2022-08-10T12:10:23.476Z,102756.66
2022-08-10T12:12:29.549Z,102751.81
2022-08-10T12:14:41.041Z,102746.09
2022-08-10T12:16:47.360Z,102749.50
2022-08-10T12:19:19.680Z,102749.44
2022-08-10T12:21:50.432Z,102747.75
2022-08-10T12:24:03.344Z,102742.25
2022-08-10T12:26:12.769Z,102738.16
2022-08-10T12:28:21.871Z,102734.91
2022-08-10T12:30:51.935Z,102732.31
2022-08-10T12:33:18.875Z,102721.09
2022-08-10T12:35:32.276Z,102719.75
2022-08-10T12:37:45.479Z,102717.66
2022-08-10T12:40:33.318Z,102722.66
2022-08-10T12:42:41.584Z,102713.31
2022-08-10T12:44:50.401Z,102715.59
2022-08-10T12:46:58.511Z,102717.53
2022-08-10T12:49:17.772Z,102703.00
2022-08-10T12:51:24.109Z,102707.47
2022-08-10T12:53:41.020Z,102704.31
2022-08-10T12:55:43.987Z,102695.75
2022-08-10T12:57:52.678Z,102697.09
2022-08-10T13:00:02.500Z,102685.88
2022-08-10T13:02:08.055Z,102686.84
2022-08-10T13:04:23.748Z,102682.81
2022-08-10T13:06:27.754Z,102679.78
2022-08-10T13:08:51.655Z,102673.91
2022-08-10T13:11:01.032Z,102674.56
2022-08-10T13:13:03.320Z,102669.53
2022-08-10T13:15:43.133Z,102671.16
2022-08-10T13:17:39.541Z,102669.53
2022-08-10T13:19:56.466Z,102662.81
2022-08-10T13:22:02.962Z,102662.84
2022-08-10T13:24:17.921Z,102670.78
2022-08-10T13:26:22.480Z,102662.53
2022-08-10T13:28:45.660Z,102656.56
2022-08-10T13:30:50.694Z,102659.78
2022-08-10T13:32:53.626Z,102655.66
2022-08-10T13:34:58.139Z,102654.13
2022-08-10T13:37:02.459Z,102652.41
2022-08-10T13:39:06.433Z,102637.09
2022-08-10T13:41:09.809Z,102644.47
2022-08-10T13:43:15.498Z,102643.28
2022-08-10T13:45:23.916Z,102646.75
2022-08-10T13:47:48.092Z,102651.84
2022-08-10T13:50:04.253Z,102648.16
2022-08-10T13:52:12.680Z,102640.69
2022-08-10T13:54:18.883Z,102632.66
2022-08-10T13:56:22.860Z,102643.81
2022-08-10T13:58:32.616Z,102641.66
2022-08-10T14:00:39.740Z,102641.66
2022-08-10T14:03:03.012Z,102631.47
2022-08-10T14:05:07.261Z,102630.47
2022-08-10T14:07:12.078Z,102635.16
2022-08-10T14:09:17.750Z,102633.75
2022-08-10T14:11:21.463Z,102638.72
2022-08-10T14:13:26.625Z,102627.00
2022-08-10T14:15:30.361Z,102631.56
2022-08-10T14:17:32.951Z,102626.47
2022-08-10T14:19:43.620Z,102621.16
2022-08-10T14:21:45.617Z,102623.97
2022-08-10T14:23:53.165Z,102619.53
2022-08-10T14:26:08.582Z,102617.91
2022-08-10T14:28:12.023Z,102617.16
2022-08-10T14:30:16.956Z,102618.00
2022-08-10T14:32:23.528Z,102618.13
2022-08-10T14:36:15.051Z,102609.66
2022-08-10T14:37:02.750Z,102612.38
2022-08-10T14:39:05.474Z,102606.09
2022-08-10T14:42:01.868Z,102605.31
2022-08-10T14:43:42.240Z,102600.97
2022-08-10T14:45:47.593Z,102597.41
2022-08-10T14:47:59.343Z,102602.94
2022-08-10T14:50:05.180Z,102593.16
2022-08-10T14:52:07.976Z,102593.25
2022-08-10T14:54:15.665Z,102595.19
2022-08-10T14:56:26.249Z,102590.09
2022-08-10T14:58:35.477Z,102588.34
2022-08-10T15:00:43.101Z,102588.44
2022-08-10T15:02:52.868Z,102583.88
2022-08-10T15:04:58.214Z,102590.09
2022-08-10T15:07:21.685Z,102591.63
2022-08-10T15:09:28.502Z,102580.03
2022-08-10T15:12:13.199Z,102578.28
2022-08-10T15:14:43.745Z,102584.47
2022-08-10T15:16:37.669Z,102583.50
2022-08-10T15:18:43.270Z,102587.06
2022-08-10T15:21:03.421Z,102578.81
2022-08-10T15:23:31.152Z,102579.69
2022-08-10T15:25:39.905Z,102573.41
2022-08-10T15:28:10.319Z,102576.13
2022-08-10T15:30:14.555Z,102584.25
2022-08-10T15:32:36.317Z,102578.06
2022-08-10T15:34:57.256Z,102573.50
2022-08-10T15:37:36.536Z,102564.41
2022-08-10T15:40:25.359Z,102570.50
2022-08-10T15:42:23.231Z,102562.47
2022-08-10T15:44:35.681Z,102562.28
2022-08-10T15:46:44.038Z,102550.75
2022-08-10T15:48:48.493Z,102559.09
2022-08-10T15:50:56.555Z,102560.56
2022-08-10T15:53:18.638Z,102556.44
2022-08-10T15:55:42.883Z,102560.34
2022-08-10T15:57:50.399Z,102556.44
2022-08-10T16:00:05.401Z,102556.13
2022-08-10T16:02:17.702Z,102549.84
2022-08-10T16:04:36.267Z,102559.91
2022-08-10T16:06:49.129Z,102556.22
2022-08-10T16:08:56.903Z,102555.25
2022-08-10T16:11:20.468Z,102553.41
2022-08-10T16:13:50.932Z,102552.53
2022-08-10T16:15:53.438Z,102555.38
2022-08-10T16:18:00.912Z,102558.84
2022-08-10T16:20:04.902Z,102551.47
2022-08-10T16:22:37.193Z,102557.75
2022-08-10T16:24:37.355Z,102555.16
2022-08-10T16:26:45.047Z,102553.53
2022-08-10T16:28:55.050Z,102549.94
2022-08-10T16:30:58.002Z,102542.78
2022-08-10T16:33:00.499Z,102548.22
2022-08-10T16:35:09.293Z,102549.19
2022-08-10T16:37:16.893Z,102545.59
2022-08-10T16:39:57.963Z,102543.97
2022-08-10T16:42:03.740Z,102546.56
2022-08-10T16:44:10.395Z,102543.00
2022-08-10T16:46:16.616Z,102541.16
2022-08-10T16:48:48.844Z,102541.16
2022-08-10T16:50:52.545Z,102533.91
2022-08-10T16:52:55.605Z,102532.06
2022-08-10T16:55:16.613Z,102537.47
2022-08-10T16:57:28.053Z,102521.31
2022-08-10T16:59:37.070Z,102531.19
2022-08-10T17:01:41.842Z,102526.75
2022-08-10T17:04:06.775Z,102521.53
2022-08-10T17:06:13.683Z,102526.09
2022-08-10T17:08:18.102Z,102523.38
2022-08-10T17:10:21.804Z,102523.28
2022-08-10T17:12:27.544Z,102518.72
2022-08-10T17:14:30.064Z,102520.34
2022-08-10T17:16:55.230Z,102517.44
2022-08-10T17:18:57.190Z,102514.72
2022-08-10T17:21:00.589Z,102511.03
2022-08-10T17:23:06.563Z,102509.84
2022-08-10T17:25:22.850Z,102508.75
2022-08-10T17:28:05.608Z,102508.75
2022-08-10T17:30:13.998Z,102508.53
2022-08-10T17:32:25.348Z,102509.19
2022-08-10T17:34:33.220Z,102508.97
2022-08-10T17:36:37.286Z,102500.72
2022-08-10T17:38:39.024Z,102505.09
2022-08-10T17:40:47.461Z,102508.56
2022-08-10T17:42:50.877Z,102507.59
2022-08-10T17:44:54.146Z,102506.84
2022-08-10T17:46:56.415Z,102501.59
2022-08-10T17:48:59.468Z,102503.66
2022-08-10T17:51:03.075Z,102502.38
2022-08-10T17:53:28.236Z,102504.63
2022-08-10T17:55:35.469Z,102503.44
2022-08-10T17:57:40.876Z,102504.84
2022-08-10T17:59:43.746Z,102502.56
2022-08-10T18:01:58.531Z,102502.19
2022-08-10T18:04:08.547Z,102500.88
2022-08-10T18:06:15.957Z,102500.41
2022-08-10T18:08:20.345Z,102511.66
2022-08-10T18:10:26.394Z,102509.38
2022-08-10T18:12:38.554Z,102510.53
2022-08-10T18:14:45.194Z,102511.81
2022-08-10T18:16:49.028Z,102511.25
2022-08-10T18:18:58.398Z,102509.81
2022-08-10T18:21:23.752Z,102519.31
2022-08-10T18:23:32.881Z,102516.91
2022-08-10T18:25:44.085Z,102515.47
2022-08-10T18:28:03.833Z,102515.88
2022-08-10T18:30:09.070Z,102515.31
2022-08-10T18:32:11.934Z,102516.44
2022-08-10T18:34:19.624Z,102518.66
2022-08-10T18:36:23.862Z,102520.13
2022-08-10T18:38:27.139Z,102512.41
2022-08-10T18:40:36.115Z,102512.59
2022-08-10T18:42:41.097Z,102515.91
2022-08-10T18:44:47.264Z,102518.91
2022-08-10T18:47:02.965Z,102520.16
2022-08-10T18:49:16.405Z,102524.84
2022-08-10T18:51:26.759Z,102516.38
2022-08-10T18:53:28.211Z,102521.97
2022-08-10T18:55:39.624Z,102525.00
2022-08-10T18:58:26.530Z,102524.44
2022-08-10T19:00:51.441Z,102522.88
2022-08-10T19:03:18.612Z,102527.03
2022-08-10T19:05:48.413Z,102531.06
2022-08-10T19:08:14.033Z,102542.91
2022-08-10T19:10:50.764Z,102535.53
2022-08-10T19:13:18.730Z,102530.41
2022-08-10T19:15:25.897Z,102538.03
2022-08-10T19:18:03.013Z,102539.25
2022-08-10T19:20:07.839Z,102545.91
2022-08-10T19:22:19.788Z,102538.94
2022-08-10T19:24:45.521Z,102540.06
2022-08-10T19:27:19.313Z,102535.25
2022-08-10T19:30:11.649Z,102543.72
2022-08-10T19:32:25.176Z,102543.47
2022-08-10T19:34:36.934Z,102547.47
2022-08-10T19:37:07.710Z,102545.38
2022-08-10T19:39:18.373Z,102540.41
2022-08-10T19:41:41.877Z,102543.63
2022-08-10T19:44:01.379Z,102535.88
2022-08-10T19:46:12.781Z,102539.69
2022-08-10T19:48:35.271Z,102544.47
2022-08-10T19:50:51.440Z,102538.63
2022-08-10T19:53:30.708Z,102549.63
2022-08-10T19:55:43.261Z,102537.69
2022-08-10T19:58:13.322Z,102546.19
2022-08-10T20:00:22.935Z,102546.63
2022-08-10T20:02:32.312Z,102544.41
2022-08-10T20:04:45.900Z,102548.38
2022-08-10T20:06:54.490Z,102535.53
2022-08-10T20:09:06.819Z,102541.38
2022-08-10T20:11:45.129Z,102541.72
2022-08-10T20:14:21.652Z,102548.44
2022-08-10T20:16:31.671Z,102542.47
2022-08-10T20:18:57.133Z,102546.28
2022-08-10T20:21:25.234Z,102553.56
2022-08-10T20:23:29.680Z,102551.09
2022-08-10T20:25:32.889Z,102542.06
2022-08-10T20:28:00.081Z,102550.06
2022-08-10T20:30:03.709Z,102561.72
2022-08-10T20:32:18.223Z,102567.00
2022-08-10T20:34:22.494Z,102562.56
2022-08-10T20:36:31.313Z,102574.06
2022-08-10T20:39:05.942Z,102573.97
2022-08-10T20:41:43.891Z,102568.31
2022-08-10T20:44:15.383Z,102561.16
2022-08-10T20:46:29.574Z,102567.66
2022-08-10T20:48:48.054Z,102563.28
2022-08-10T20:51:07.458Z,102561.47
2022-08-10T20:53:14.333Z,102559.97
2022-08-10T20:55:16.828Z,102558.31
2022-08-10T20:57:54.385Z,102559.41
2022-08-10T21:00:11.037Z,102557.81
2022-08-10T21:02:40.523Z,102551.88
2022-08-10T21:05:02.574Z,102554.72
2022-08-10T21:07:43.966Z,102556.69
2022-08-10T21:10:03.207Z,102551.63
2022-08-10T21:12:19.819Z,102554.50
2022-08-10T21:15:03.240Z,102550.16
2022-08-10T21:17:59.803Z,102559.22
2022-08-10T21:20:16.316Z,102567.44
2022-08-10T21:22:23.918Z,102561.41
2022-08-10T21:24:33.068Z,102559.00
2022-08-10T21:26:37.534Z,102555.81
2022-08-10T21:28:56.011Z,102554.31
2022-08-10T21:31:22.143Z,102554.53
2022-08-10T21:33:36.879Z,102556.53
2022-08-10T21:35:43.293Z,102555.00
2022-08-10T21:38:04.494Z,102553.19
2022-08-10T21:40:37.601Z,102555.44
2022-08-10T21:43:15.794Z,102547.38
2022-08-10T21:45:59.206Z,102548.53
2022-08-10T21:48:30.449Z,102555.88
2022-08-10T21:50:55.393Z,102554.41
2022-08-10T21:53:44.916Z,102548.25
2022-08-10T21:56:19.489Z,102554.78
2022-08-10T21:58:52.258Z,102543.25
2022-08-10T22:01:17.502Z,102541.63
2022-08-10T22:03:40.131Z,102544.47
2022-08-10T22:06:05.704Z,102547.50
2022-08-10T22:08:29.033Z,102555.63
2022-08-10T22:10:50.837Z,102550.38
2022-08-10T22:13:17.660Z,102546.09
2022-08-10T22:16:03.948Z,102549.66
2022-08-10T22:18:31.108Z,102543.75
2022-08-10T22:20:57.463Z,102549.06
2022-08-10T22:23:38.139Z,102543.03
2022-08-10T22:26:22.356Z,102545.03
2022-08-10T22:28:42.691Z,102545.28
2022-08-10T22:31:32.647Z,102542.66
2022-08-10T22:34:34.458Z,102543.88
2022-08-10T22:37:19.463Z,102538.78
2022-08-10T22:40:13.033Z,102535.28
2022-08-10T22:43:10.561Z,102535.41
2022-08-10T22:45:35.177Z,102540.78
2022-08-10T22:47:55.428Z,102540.91
2022-08-10T22:50:01.247Z,102533.13
2022-08-10T22:52:16.851Z,102527.84
2022-08-10T22:55:03.538Z,102537.75
2022-08-10T22:57:24.483Z,102543.31
2022-08-10T22:59:29.413Z,102536.34
2022-08-10T23:02:07.033Z,102530.03
2022-08-10T23:04:29.223Z,102540.91
2022-08-10T23:06:38.284Z,102536.59
2022-08-10T23:08:50.004Z,102529.63
2022-08-10T23:10:54.190Z,102535.91
2022-08-10T23:13:11.744Z,102532.50
2022-08-10T23:15:44.691Z,102529.88
2022-08-10T23:18:12.570Z,102529.19
2022-08-10T23:20:18.099Z,102528.44
2022-08-10T23:22:33.971Z,102528.66
2022-08-10T23:24:42.963Z,102527.03
2022-08-10T23:26:45.079Z,102526.28
2022-08-10T23:28:59.175Z,102529.97
2022-08-10T23:31:15.057Z,102522.13
2022-08-10T23:33:18.363Z,102525.88
2022-08-10T23:36:29.928Z,102519.88
2022-08-10T23:38:25.152Z,102523.00
2022-08-10T23:40:27.357Z,102524.50
2022-08-10T23:42:39.824Z,102524.00
2022-08-10T23:44:58.831Z,102527.75
2022-08-10T23:47:03.497Z,102526.94
2022-08-10T23:49:07.752Z,102521.69
2022-08-10T23:51:16.450Z,102530.72
2022-08-10T23:53:26.508Z,102520.19
2022-08-10T23:55:48.772Z,102513.19
2022-08-10T23:57:57.987Z,102516.88
